createdAt,value
2019-02-14T00:01:59.950Z,102514.98
2019-02-14T00:04:27.263Z,102523.24
2019-02-14T00:06:54.960Z,102521.90
2019-02-14T00:09:22.480Z,102519.52
2019-02-14T00:11:50.512Z,102533.54
2019-02-14T00:14:18.790Z,102538.52
2019-02-14T00:16:46.607Z,102536.84
2019-02-14T00:19:13.853Z,102535.73
2019-02-14T00:21:42.161Z,102541.41
2019-02-14T00:24:09.685Z,102533.30
2019-02-14T00:26:36.873Z,102527.16
2019-02-14T00:29:04.642Z,102523.74
2019-02-14T00:31:32.516Z,102523.38
2019-02-14T00:33:59.713Z,102526.61
2019-02-14T00:36:27.070Z,102526.49
2019-02-14T00:38:54.651Z,102516.98
2019-02-14T00:41:22.386Z,102524.66
2019-02-14T00:43:50.044Z,102523.86
2019-02-14T00:46:17.601Z,102529.41
2019-02-14T00:48:45.246Z,102525.09
2019-02-14T00:51:12.885Z,102521.36
2019-02-14T00:53:40.881Z,102520.09
2019-02-14T00:56:08.463Z,102523.33
2019-02-14T00:58:36.198Z,102524.73
2019-02-14T01:01:03.809Z,102530.89
2019-02-14T01:03:31.202Z,102526.67
2019-02-14T01:05:58.664Z,102516.42
2019-02-14T01:08:26.464Z,102510.03
2019-02-14T01:10:54.211Z,102509.17
2019-02-14T01:13:21.574Z,102506.80
2019-02-14T01:15:49.500Z,102511.20
2019-02-14T01:18:16.663Z,102509.86
2019-02-14T01:20:43.985Z,102513.80
2019-02-14T01:23:11.674Z,102514.66
2019-02-14T01:25:39.185Z,102509.66
2019-02-14T01:28:07.087Z,102512.09
2019-02-14T01:30:34.576Z,102507.58
2019-02-14T01:33:02.257Z,102501.81
2019-02-14T01:35:29.591Z,102505.03
2019-02-14T01:37:57.777Z,102512.91
2019-02-14T01:40:25.148Z,102511.48
2019-02-14T01:42:52.282Z,102513.75
2019-02-14T01:45:20.426Z,102515.38
2019-02-14T01:47:48.293Z,102522.41
2019-02-14T01:50:15.541Z,102524.06
2019-02-14T01:52:43.625Z,102524.23
2019-02-14T01:55:11.603Z,102519.41
2019-02-14T01:57:39.299Z,102513.45
2019-02-14T02:00:11.052Z,102516.84
2019-02-14T02:02:38.692Z,102525.03
2019-02-14T02:05:06.740Z,102512.91
2019-02-14T02:07:34.739Z,102514.22
2019-02-14T02:10:02.386Z,102509.91
2019-02-14T02:12:29.977Z,102511.06
2019-02-14T02:14:58.613Z,102511.66
2019-02-14T02:17:26.501Z,102515.03
2019-02-14T02:19:54.048Z,102514.37
2019-02-14T02:22:21.683Z,102512.03
2019-02-14T02:24:49.273Z,102507.64
2019-02-14T02:27:17.089Z,102510.58
2019-02-14T02:29:44.770Z,102509.35
2019-02-14T02:32:15.845Z,102514.54
2019-02-14T02:34:43.582Z,102516.25
2019-02-14T02:37:11.466Z,102521.05
2019-02-14T02:39:39.374Z,102515.69
2019-02-14T02:42:07.020Z,102517.22
2019-02-14T02:44:34.455Z,102522.22
2019-02-14T02:47:01.704Z,102528.75
2019-02-14T02:49:29.690Z,102529.08
2019-02-14T02:51:57.492Z,102529.08
2019-02-14T02:54:25.913Z,102521.67
2019-02-14T02:56:53.399Z,102523.80
2019-02-14T02:59:20.919Z,102528.91
2019-02-14T03:01:48.505Z,102529.77
2019-02-14T03:04:16.092Z,102533.91
2019-02-14T03:06:43.226Z,102530.78
2019-02-14T03:09:10.528Z,102533.09
2019-02-14T03:11:37.830Z,102538.59
2019-02-14T03:14:08.630Z,102537.66
2019-02-14T03:16:35.794Z,102538.61
2019-02-14T03:19:03.352Z,102525.32
2019-02-14T03:21:31.157Z,102520.56
2019-02-14T03:23:58.859Z,102524.58
2019-02-14T03:26:26.824Z,102525.80
2019-02-14T03:28:54.929Z,102528.16
2019-02-14T03:31:22.381Z,102535.92
2019-02-14T03:33:50.914Z,102543.88
2019-02-14T03:36:19.413Z,102532.61
2019-02-14T03:38:47.193Z,102533.77
2019-02-14T03:41:14.398Z,102535.77
2019-02-14T03:43:41.796Z,102527.25
2019-02-14T03:46:09.074Z,102530.45
2019-02-14T03:48:36.258Z,102526.35
2019-02-14T03:51:04.083Z,102530.96
2019-02-14T03:53:32.091Z,102535.67
2019-02-14T03:55:59.853Z,102530.63
2019-02-14T03:58:28.169Z,102537.33
2019-02-14T04:00:55.982Z,102539.89
2019-02-14T04:03:23.676Z,102549.56
2019-02-14T04:05:51.115Z,102554.86
2019-02-14T04:08:18.700Z,102546.33
2019-02-14T04:10:45.898Z,102549.20
2019-02-14T04:13:13.206Z,102540.00
2019-02-14T04:15:40.839Z,102544.88
2019-02-14T04:18:08.502Z,102547.42
2019-02-14T04:20:36.880Z,102539.75
2019-02-14T04:23:04.406Z,102538.11
2019-02-14T04:25:31.894Z,102539.86
2019-02-14T04:27:59.068Z,102541.69
2019-02-14T04:30:26.439Z,102536.27
2019-02-14T04:32:53.899Z,102543.17
2019-02-14T04:35:21.200Z,102541.83
2019-02-14T04:37:49.488Z,102548.58
2019-02-14T04:40:17.018Z,102546.94
2019-02-14T04:42:44.723Z,102552.71
2019-02-14T04:45:12.561Z,102545.90
2019-02-14T04:47:40.393Z,102551.48
2019-02-14T04:50:08.242Z,102556.30
2019-02-14T04:52:35.883Z,102561.55
2019-02-14T04:55:04.267Z,102558.97
2019-02-14T04:57:32.174Z,102559.83
2019-02-14T04:59:59.805Z,102559.09
2019-02-14T05:02:27.820Z,102556.78
2019-02-14T05:04:55.251Z,102556.70
2019-02-14T05:07:23.208Z,102556.48
2019-02-14T05:09:50.939Z,102556.34
2019-02-14T05:12:18.503Z,102557.38
2019-02-14T05:14:45.630Z,102562.11
2019-02-14T05:17:13.734Z,102556.93
2019-02-14T05:19:40.916Z,102554.37
2019-02-14T05:22:08.703Z,102570.78
2019-02-14T05:24:36.234Z,102567.69
2019-02-14T05:27:03.690Z,102563.62
2019-02-14T05:29:32.305Z,102558.34
2019-02-14T05:31:59.767Z,102561.14
2019-02-14T05:34:27.419Z,102556.77
2019-02-14T05:36:55.359Z,102562.80
2019-02-14T05:39:23.129Z,102560.72
2019-02-14T05:41:51.540Z,102554.31
2019-02-14T05:44:19.667Z,102550.86
2019-02-14T05:46:47.720Z,102553.94
2019-02-14T05:49:15.361Z,102554.16
2019-02-14T05:51:43.018Z,102558.09
2019-02-14T05:54:13.246Z,102558.47
2019-02-14T05:56:41.056Z,102562.32
2019-02-14T05:59:10.372Z,102570.75
2019-02-14T06:01:37.871Z,102571.29
2019-02-14T06:04:05.127Z,102570.94
2019-02-14T06:06:32.633Z,102566.25
2019-02-14T06:09:00.088Z,102571.39
2019-02-14T06:11:28.217Z,102574.45
2019-02-14T06:13:55.747Z,102567.57
2019-02-14T06:16:23.391Z,102565.64
2019-02-14T06:18:50.705Z,102569.01
2019-02-14T06:21:19.141Z,102573.78
2019-02-14T06:23:49.981Z,102572.09
2019-02-14T06:26:18.207Z,102569.42
2019-02-14T06:28:46.032Z,102580.19
2019-02-14T06:31:13.888Z,102581.63
2019-02-14T06:33:41.306Z,102593.01
2019-02-14T06:36:09.050Z,102596.68
2019-02-14T06:38:36.654Z,102601.02
2019-02-14T06:41:04.030Z,102611.14
2019-02-14T06:43:31.895Z,102607.15
2019-02-14T06:45:59.777Z,102602.27
2019-02-14T06:48:27.691Z,102610.02
2019-02-14T06:50:54.946Z,102607.52
2019-02-14T06:53:22.883Z,102609.72
2019-02-14T06:55:50.122Z,102611.84
2019-02-14T06:58:17.389Z,102619.07
2019-02-14T07:00:45.274Z,102625.27
2019-02-14T07:03:12.702Z,102632.75
2019-02-14T07:05:40.290Z,102626.50
2019-02-14T07:08:07.961Z,102629.75
2019-02-14T07:10:36.583Z,102635.83
2019-02-14T07:13:04.570Z,102644.59
2019-02-14T07:15:32.574Z,102650.59
2019-02-14T07:18:00.673Z,102649.86
2019-02-14T07:20:28.972Z,102649.26
2019-02-14T07:22:56.803Z,102651.49
2019-02-14T07:25:24.418Z,102659.16
2019-02-14T07:27:51.955Z,102664.97
2019-02-14T07:30:20.052Z,102660.96
2019-02-14T07:32:48.001Z,102661.39
2019-02-14T07:35:15.464Z,102668.60
2019-02-14T07:37:42.862Z,102666.12
2019-02-14T07:40:11.674Z,102672.31
2019-02-14T07:42:39.178Z,102665.48
2019-02-14T07:45:09.738Z,102670.19
2019-02-14T07:47:37.104Z,102677.01
2019-02-14T07:50:05.424Z,102682.94
2019-02-14T07:52:33.381Z,102681.08
2019-02-14T07:55:00.666Z,102685.36
2019-02-14T07:57:27.932Z,102693.59
2019-02-14T07:59:55.342Z,102693.95
2019-02-14T08:02:22.720Z,102696.31
2019-02-14T08:04:50.396Z,102695.92
2019-02-14T08:07:18.127Z,102692.98
2019-02-14T08:09:45.623Z,102689.88
2019-02-14T08:12:13.709Z,102681.34
2019-02-14T08:14:41.077Z,102679.42
2019-02-14T08:17:08.175Z,102674.31
2019-02-14T08:19:36.421Z,102684.86
2019-02-14T08:22:04.022Z,102684.63
2019-02-14T08:24:31.742Z,102692.81
2019-02-14T08:26:59.617Z,102694.86
2019-02-14T08:29:28.013Z,102694.67
2019-02-14T08:31:56.703Z,102693.98
2019-02-14T08:34:24.896Z,102696.52
2019-02-14T08:36:56.509Z,102699.77
2019-02-14T08:39:24.045Z,102700.74
2019-02-14T08:41:52.435Z,102701.75
2019-02-14T08:44:19.935Z,102693.80
2019-02-14T08:46:47.809Z,102695.22
2019-02-14T08:49:15.105Z,102694.47
2019-02-14T08:51:42.729Z,102683.86
2019-02-14T08:54:10.511Z,102684.95
2019-02-14T08:56:38.933Z,102690.22
2019-02-14T08:59:06.542Z,102685.95
2019-02-14T09:01:33.902Z,102695.92
2019-02-14T09:04:01.714Z,102693.22
2019-02-14T09:06:29.630Z,102690.30
2019-02-14T09:09:00.078Z,102691.90
2019-02-14T09:11:27.489Z,102676.08
2019-02-14T09:13:55.070Z,102670.14
2019-02-14T09:16:23.010Z,102672.28
2019-02-14T09:18:53.863Z,102670.94
2019-02-14T09:21:21.330Z,102663.28
2019-02-14T09:23:50.211Z,102650.31
2019-02-14T09:26:18.287Z,102652.96
2019-02-14T09:28:45.566Z,102653.58
2019-02-14T09:31:13.650Z,102659.67
2019-02-14T09:33:41.501Z,102661.00
2019-02-14T09:36:08.611Z,102651.83
2019-02-14T09:38:36.257Z,102658.08
2019-02-14T09:41:03.828Z,102657.84
2019-02-14T09:43:31.456Z,102657.30
2019-02-14T09:45:58.880Z,102648.77
2019-02-14T09:48:26.153Z,102652.51
2019-02-14T09:50:53.497Z,102652.28
2019-02-14T09:53:22.162Z,102646.46
2019-02-14T09:55:49.584Z,102647.48
2019-02-14T09:58:16.805Z,102647.55
2019-02-14T10:00:44.626Z,102647.33
2019-02-14T10:03:12.257Z,102640.09
2019-02-14T10:05:40.010Z,102650.33
2019-02-14T10:08:12.914Z,102644.59
2019-02-14T10:10:37.347Z,102641.38
2019-02-14T10:13:05.800Z,102637.61
2019-02-14T10:15:33.880Z,102642.55
2019-02-14T10:18:01.382Z,102643.75
2019-02-14T10:20:28.846Z,102651.60
2019-02-14T10:22:56.610Z,102651.25
2019-02-14T10:25:23.958Z,102655.00
2019-02-14T10:27:52.156Z,102654.80
2019-02-14T10:30:19.530Z,102653.86
2019-02-14T10:32:47.080Z,102649.91
2019-02-14T10:35:15.011Z,102636.78
2019-02-14T10:37:42.569Z,102636.21
2019-02-14T10:40:11.776Z,102646.35
2019-02-14T10:42:39.715Z,102641.20
2019-02-14T10:45:10.897Z,102634.23
2019-02-14T10:47:39.188Z,102629.95
2019-02-14T10:50:08.790Z,102619.31
2019-02-14T10:52:37.838Z,102626.73
2019-02-14T10:55:08.751Z,102634.36
2019-02-14T10:57:41.501Z,102632.66
2019-02-14T11:00:18.048Z,102626.98
2019-02-14T11:02:49.808Z,102622.89
2019-02-14T11:05:21.560Z,102619.80
2019-02-14T11:07:53.342Z,102621.70
2019-02-14T11:10:27.721Z,102629.14
2019-02-14T11:12:57.879Z,102622.57
2019-02-14T11:15:28.464Z,102620.28
2019-02-14T11:18:02.037Z,102610.59
2019-02-14T11:20:34.574Z,102606.69
2019-02-14T11:23:07.923Z,102617.11
2019-02-14T11:25:38.123Z,102617.42
2019-02-14T11:28:12.128Z,102611.30
2019-02-14T11:30:41.578Z,102604.69
2019-02-14T11:33:15.644Z,102600.45
2019-02-14T11:35:44.084Z,102603.77
2019-02-14T11:38:23.936Z,102597.80
2019-02-14T11:40:53.812Z,102594.64
2019-02-14T11:43:23.597Z,102594.22
2019-02-14T11:45:54.929Z,102587.10
2019-02-14T11:48:27.600Z,102583.16
2019-02-14T11:50:57.888Z,102582.11
2019-02-14T11:53:29.379Z,102577.75
2019-02-14T11:55:59.794Z,102566.48
2019-02-14T11:58:28.209Z,102559.48
2019-02-14T12:00:55.468Z,102560.97
2019-02-14T12:03:22.905Z,102562.22
2019-02-14T12:05:50.310Z,102557.02
2019-02-14T12:08:17.934Z,102546.78
2019-02-14T12:10:46.437Z,102547.95
2019-02-14T12:13:14.278Z,102542.22
2019-02-14T12:15:41.765Z,102549.02
2019-02-14T12:18:09.734Z,102540.44
2019-02-14T12:20:47.874Z,102538.31
2019-02-14T12:23:13.812Z,102533.33
2019-02-14T12:25:42.797Z,102540.73
2019-02-14T12:28:10.346Z,102538.58
2019-02-14T12:30:39.203Z,102527.47
2019-02-14T12:33:20.263Z,102517.18
2019-02-14T12:35:48.076Z,102514.78
2019-02-14T12:38:22.245Z,102509.20
2019-02-14T12:40:49.977Z,102513.55
2019-02-14T12:43:17.673Z,102511.21
2019-02-14T12:45:44.953Z,102511.91
2019-02-14T12:48:13.674Z,102514.13
2019-02-14T12:50:40.900Z,102512.72
2019-02-14T12:53:08.922Z,102496.50
2019-02-14T12:55:36.521Z,102502.40
2019-02-14T12:58:04.154Z,102502.01
2019-02-14T13:00:33.064Z,102500.42
2019-02-14T13:03:00.792Z,102498.98
2019-02-14T13:05:28.360Z,102487.39
2019-02-14T13:07:57.174Z,102486.34
2019-02-14T13:10:26.155Z,102487.72
2019-02-14T13:12:53.702Z,102473.16
2019-02-14T13:15:21.750Z,102470.52
2019-02-14T13:17:49.215Z,102471.45
2019-02-14T13:20:17.184Z,102473.82
2019-02-14T13:22:48.862Z,102467.70
2019-02-14T13:25:16.463Z,102458.27
2019-02-14T13:27:44.165Z,102460.69
2019-02-14T13:30:15.338Z,102459.05
2019-02-14T13:32:42.826Z,102456.95
2019-02-14T13:35:10.285Z,102459.58
2019-02-14T13:37:40.005Z,102456.95
2019-02-14T13:40:08.004Z,102453.30
2019-02-14T13:42:38.598Z,102455.52
2019-02-14T13:45:09.825Z,102445.38
2019-02-14T13:47:37.195Z,102439.33
2019-02-14T13:50:06.159Z,102436.05
2019-02-14T13:52:33.802Z,102440.27
2019-02-14T13:55:01.377Z,102435.80
2019-02-14T13:57:28.638Z,102431.38
2019-02-14T13:59:57.034Z,102429.16
2019-02-14T14:02:24.696Z,102431.72
2019-02-14T14:04:57.121Z,102422.84
2019-02-14T14:07:24.731Z,102420.13
2019-02-14T14:09:52.407Z,102421.09
2019-02-14T14:12:20.559Z,102411.17
2019-02-14T14:14:48.296Z,102415.76
2019-02-14T14:17:16.379Z,102422.17
2019-02-14T14:19:43.998Z,102419.69
2019-02-14T14:22:11.988Z,102411.59
2019-02-14T14:24:39.436Z,102412.14
2019-02-14T14:27:07.453Z,102406.02
2019-02-14T14:29:35.296Z,102404.39
2019-02-14T14:32:02.669Z,102406.73
2019-02-14T14:34:30.172Z,102399.37
2019-02-14T14:36:58.324Z,102404.07
2019-02-14T14:39:26.402Z,102408.92
2019-02-14T14:41:53.540Z,102414.39
2019-02-14T14:44:29.996Z,102412.92
2019-02-14T14:47:00.809Z,102406.35
2019-02-14T14:49:27.960Z,102411.09
2019-02-14T14:51:55.642Z,102416.14
2019-02-14T14:54:23.279Z,102411.94
2019-02-14T14:56:50.758Z,102413.36
2019-02-14T14:59:18.571Z,102416.39
2019-02-14T15:01:46.110Z,102412.14
2019-02-14T15:04:13.488Z,102414.64
2019-02-14T15:06:40.994Z,102413.30
2019-02-14T15:09:12.437Z,102411.58
2019-02-14T15:11:40.858Z,102416.63
2019-02-14T15:14:08.528Z,102413.09
2019-02-14T15:16:35.635Z,102411.56
2019-02-14T15:19:03.800Z,102411.17
2019-02-14T15:21:31.416Z,102402.94
2019-02-14T15:23:58.530Z,102399.67
2019-02-14T15:26:26.283Z,102408.20
2019-02-14T15:28:53.670Z,102398.83
2019-02-14T15:31:21.081Z,102398.63
2019-02-14T15:33:49.314Z,102402.34
2019-02-14T15:36:16.688Z,102394.20
2019-02-14T15:38:44.763Z,102392.55
2019-02-14T15:41:12.120Z,102392.55
2019-02-14T15:43:39.880Z,102392.22
2019-02-14T15:46:07.565Z,102380.86
2019-02-14T15:48:35.022Z,102384.86
2019-02-14T15:51:02.726Z,102380.36
2019-02-14T15:53:30.488Z,102382.77
2019-02-14T15:55:58.292Z,102380.82
2019-02-14T15:58:26.030Z,102376.23
2019-02-14T16:00:54.090Z,102376.11
2019-02-14T16:03:21.627Z,102378.68
2019-02-14T16:05:49.856Z,102389.62
2019-02-14T16:08:19.454Z,102384.57
2019-02-14T16:10:46.819Z,102384.05
2019-02-14T16:13:14.060Z,102388.44
2019-02-14T16:15:41.618Z,102382.05
2019-02-14T16:18:09.170Z,102387.81
2019-02-14T16:20:36.903Z,102380.88
2019-02-14T16:23:06.434Z,102380.22
2019-02-14T16:25:33.944Z,102386.77
2019-02-14T16:28:01.590Z,102382.11
2019-02-14T16:30:30.896Z,102389.92
2019-02-14T16:32:58.335Z,102393.27
2019-02-14T16:35:25.975Z,102391.55
2019-02-14T16:37:53.396Z,102391.05
2019-02-14T16:40:27.443Z,102385.97
2019-02-14T16:42:54.745Z,102392.64
2019-02-14T16:45:23.793Z,102395.58
2019-02-14T16:47:51.066Z,102389.50
2019-02-14T16:50:19.911Z,102395.05
2019-02-14T16:52:47.921Z,102390.95
2019-02-14T16:55:15.262Z,102400.00
2019-02-14T16:57:42.644Z,102393.05
2019-02-14T17:00:10.939Z,102390.34
2019-02-14T17:02:38.455Z,102394.44
2019-02-14T17:05:05.918Z,102390.01
2019-02-14T17:07:34.054Z,102400.39
2019-02-14T17:10:02.003Z,102404.63
2019-02-14T17:12:29.556Z,102407.34
2019-02-14T17:14:57.502Z,102401.38
2019-02-14T17:17:27.846Z,102409.35
2019-02-14T17:19:54.113Z,102407.62
2019-02-14T17:22:22.019Z,102404.56
2019-02-14T17:24:49.214Z,102411.69
2019-02-14T17:27:18.111Z,102417.08
2019-02-14T17:29:45.892Z,102418.10
2019-02-14T17:32:13.599Z,102430.14
2019-02-14T17:34:40.987Z,102435.79
2019-02-14T17:37:08.786Z,102433.51
2019-02-14T17:39:38.859Z,102426.04
2019-02-14T17:42:06.715Z,102430.05
2019-02-14T17:44:33.996Z,102428.32
2019-02-14T17:47:01.573Z,102433.17
2019-02-14T17:49:29.502Z,102436.78
2019-02-14T17:51:56.670Z,102434.66
2019-02-14T17:54:28.531Z,102436.66
2019-02-14T17:56:55.851Z,102436.38
2019-02-14T17:59:23.331Z,102431.41
2019-02-14T18:01:51.058Z,102436.78
2019-02-14T18:04:19.940Z,102427.78
2019-02-14T18:06:50.648Z,102437.45
2019-02-14T18:09:18.693Z,102434.10
2019-02-14T18:11:49.251Z,102433.81
2019-02-14T18:14:16.705Z,102430.23
2019-02-14T18:16:44.074Z,102436.06
2019-02-14T18:19:11.596Z,102429.53
2019-02-14T18:21:38.976Z,102434.97
2019-02-14T18:24:06.364Z,102438.34
2019-02-14T18:26:33.762Z,102437.09
2019-02-14T18:29:01.855Z,102434.78
2019-02-14T18:31:29.001Z,102431.85
2019-02-14T18:33:56.779Z,102432.86
2019-02-14T18:36:24.601Z,102431.48
2019-02-14T18:38:54.165Z,102431.48
2019-02-14T18:41:21.908Z,102428.30
2019-02-14T18:43:49.301Z,102432.52
2019-02-14T18:46:16.990Z,102437.42
2019-02-14T18:48:44.920Z,102430.78
2019-02-14T18:51:12.594Z,102426.34
2019-02-14T18:53:40.034Z,102431.81
2019-02-14T18:56:09.545Z,102434.19
2019-02-14T18:58:37.136Z,102434.05
2019-02-14T19:01:05.307Z,102431.77
2019-02-14T19:03:33.309Z,102431.03
2019-02-14T19:06:00.838Z,102442.01
2019-02-14T19:08:28.593Z,102430.06
2019-02-14T19:10:56.918Z,102431.77
2019-02-14T19:13:24.962Z,102433.73
2019-02-14T19:15:52.444Z,102439.30
2019-02-14T19:18:19.706Z,102434.62
2019-02-14T19:20:46.861Z,102427.66
2019-02-14T19:23:23.354Z,102427.22
2019-02-14T19:25:43.992Z,102422.25
2019-02-14T19:28:11.538Z,102428.57
2019-02-14T19:30:39.122Z,102432.36
2019-02-14T19:33:06.765Z,102430.72
2019-02-14T19:35:34.501Z,102416.62
2019-02-14T19:38:02.908Z,102422.45
2019-02-14T19:40:30.336Z,102424.30
2019-02-14T19:42:58.186Z,102413.11
2019-02-14T19:45:36.089Z,102417.72
2019-02-14T19:47:55.370Z,102414.75
2019-02-14T19:50:23.367Z,102421.33
2019-02-14T19:52:50.779Z,102420.16
2019-02-14T19:55:18.397Z,102413.40
2019-02-14T19:57:46.272Z,102406.20
2019-02-14T20:00:14.352Z,102416.77
2019-02-14T20:02:43.009Z,102413.46
2019-02-14T20:05:10.833Z,102412.96
2019-02-14T20:07:38.211Z,102410.76
2019-02-14T20:10:08.383Z,102412.20
2019-02-14T20:12:36.278Z,102420.50
2019-02-14T20:15:04.993Z,102424.09
2019-02-14T20:17:32.763Z,102420.02
2019-02-14T20:20:00.465Z,102420.66
2019-02-14T20:22:28.238Z,102425.80
2019-02-14T20:24:57.026Z,102424.29
2019-02-14T20:27:24.935Z,102424.81
2019-02-14T20:29:52.926Z,102430.69
2019-02-14T20:32:20.119Z,102433.68
2019-02-14T20:34:47.896Z,102429.69
2019-02-14T20:37:15.785Z,102428.33
2019-02-14T20:39:44.333Z,102427.34
2019-02-14T20:42:11.885Z,102428.19
2019-02-14T20:44:39.268Z,102430.67
2019-02-14T20:47:06.508Z,102433.41
2019-02-14T20:49:34.116Z,102438.73
2019-02-14T20:52:02.045Z,102434.16
2019-02-14T20:54:30.570Z,102437.20
2019-02-14T20:56:58.016Z,102433.62
2019-02-14T20:59:25.309Z,102428.84
